Česky Dansk Deutsch English Español Suomi Français Magyar Italiano Nederlands norsk Polski Português svenska Türkçe

 

Het Weer

Huanuco (Peru)

14:23, 21 mei 2016 (GMT)

 
WE
 
Home            
Huanuco Tingo Maria Pucallpa Anta Huaraz Atalaya Lima-Callao / Aerop. Internacional Jorgechavez Chimbote Juanjui Tarapoto Ayacucho Trujillo Cruzeiro Do Sul Cajamarca Pisco Yurimaguas Rioja Chachapoyas Andahuayla Chiclayo Cuzco Tarauaca San Juan Iquitos

Om een weerknop op uw website of weblog te plaatsen, copieer onderstaande code en plak die in uw pagina. In het eerste vakje staat HTML-code, in het tweede vakje UBB-code.


Add to Google

Details

Wind speed:1 bf, 2 kn, 1.0 m/s, 2.3 miles/h, 3.7 km/h
Wind direction:Variable
Visibility:Greater than 10000 m, 10 km, 32800 ft, 6.2 miles
Clouds:Ein wenig bewölkt at 2000 ft, 610 m
Aufgelockert bewölkt at 4000 ft, 1219 m
Durchbrochene Bewölkung at 10000 ft, 3048 m
Temperature:21°C, 70°F
Dew-point:14°C, 57°F
Atmospheric pressure:1027 hPa, 770.3 mmHg, 30.33 inHg, 1.014 atm
Relative humidity:64.3 %
METAR:SPNC 211423Z VRB02KT 9999 FEW020 SCT040 BKN100 21/14 Q1027

Snelkoppelingen

Actuele weersinformatie van de hele wereld. Voeg locaties toe met het plus (+) symbool. Deze snelkoppelingen kunnen worden toegevoegd aan Google.

Lid van de Technetium groep

website free tracking
StatCounter NetStat W3C Validator

22-01-2018 05:11:41
astro.technetium.be money.technetium.be phote.technetium.be tafeltennistafel.technetium.be www.ligfiets.net